Time;durP1;ratioP1;P1;durP2;ratioP2;P2;SDS_P1;SDS_P2;PMS_P1;PMS_P2;Temp;Humidity;BMP_temperature;BMP_pressure;BME280_temperature;BME280_humidity;BME280_pressure;Samples;Min_cycle;Max_cycle;Signal;HPM_P1;HPM_P2
2023/03/21 00:01:55;;;;;;;;;;;;;;;9.08;97.76;101639.22;5027391;28;20398;-62
2023/03/21 00:04:24;;;;;;;;;;;;;;;9.05;98.02;101634.19;5028729;28;19961;-63
2023/03/21 00:06:50;;;;;;;;;;;;;;;9.04;98.18;101635.19;5033612;28;19924;-63
2023/03/21 00:09:15;;;;;;;;;;;;;;;9.02;97.89;101631.84;5017794;28;19925;-63
2023/03/21 00:11:40;;;;;;;;;;;;;;;9.00;98.33;101630.16;5028339;28;19917;-62
2023/03/21 00:14:07;;;;;;;;;;;;;;;8.99;98.49;101625.00;5017584;28;19918;-63
2023/03/21 00:16:34;;;;;;;;;;;;;;;8.97;98.61;101626.97;5034300;28;20000;-63
2023/03/21 00:19:02;;;;;;;;;;;;;;;8.96;98.77;101619.97;5034274;28;20441;-63
2023/03/21 00:21:32;;;;;;;;;;;;;;;8.92;99.21;101616.75;5021454;28;21315;-63
2023/03/21 00:23:58;;;;;;;;;;;;;;;8.86;99.48;101617.34;5013794;28;19921;-63
2023/03/21 00:26:23;;;;;;;;;;;;;;;8.81;100.00;101616.94;5037080;28;19917;-62
2023/03/21 00:28:49;;;;;;;;;;;;;;;8.77;100.00;101614.69;5029246;28;20383;-63
2023/03/21 00:31:14;;;;;;;;;;;;;;;8.74;100.00;101614.97;5023759;28;19927;-61
2023/03/21 00:33:39;;;;;;;;;;;;;;;8.72;100.00;101614.28;5027900;28;20420;-62
2023/03/21 00:36:05;;;;;;;;;;;;;;;8.69;100.00;101604.81;5036020;28;20302;-62
2023/03/21 00:38:30;;;;;;;;;;;;;;;8.66;100.00;101600.59;5032251;28;20422;-63
2023/03/21 00:40:56;;;;;;;;;;;;;;;8.64;100.00;101602.56;5032715;28;19921;-63
2023/03/21 00:43:29;;;;;;;;;;;;;;;8.62;100.00;101596.56;5023208;28;19928;-62
2023/03/21 00:45:54;;;;;;;;;;;;;;;8.60;100.00;101592.38;5036957;28;19920;-62
2023/03/21 00:48:19;;;;;;;;;;;;;;;8.58;100.00;101589.88;5036632;28;19921;-62
2023/03/21 00:50:45;;;;;;;;;;;;;;;8.57;100.00;101588.22;5031806;28;19921;-63
2023/03/21 00:53:11;;;;;;;;;;;;;;;8.57;100.00;101588.22;5032126;28;19944;-63
2023/03/21 00:55:37;;;;;;;;;;;;;;;8.57;100.00;101580.28;5026571;28;19925;-63
2023/03/21 00:58:02;;;;;;;;;;;;;;;8.57;100.00;101576.78;5025879;28;19976;-63
2023/03/21 01:00:28;;;;;;;;;;;;;;;8.55;100.00;101579.56;5025000;28;19921;-63
2023/03/21 01:02:56;;;;;;;;;;;;;;;8.56;100.00;101581.25;5028070;28;19932;-62
2023/03/21 01:06:01;;;;;;;;;;;;;;;8.55;100.00;101574.28;5029449;28;19917;-62
2023/03/21 01:08:08;;;;;;;;;;;;;;;8.58;100.00;101570.50;5025209;28;20399;-63
2023/03/21 01:10:36;;;;;;;;;;;;;;;8.59;100.00;101566.88;5030180;28;19956;-62
2023/03/21 01:13:01;;;;;;;;;;;;;;;8.59;100.00;101559.78;5035358;28;19924;-63
2023/03/21 01:15:26;;;;;;;;;;;;;;;8.59;100.00;101567.72;5026098;28;19918;-63
2023/03/21 01:17:52;;;;;;;;;;;;;;;8.59;100.00;101562.44;5031369;28;20365;-62
2023/03/21 01:20:17;;;;;;;;;;;;;;;8.59;100.00;101557.13;5026022;28;19917;-63
2023/03/21 01:22:42;;;;;;;;;;;;;;;8.60;100.00;101557.97;5033551;28;20321;-63
2023/03/21 01:25:08;;;;;;;;;;;;;;;8.59;100.00;101558.94;5025828;28;19913;-62
2023/03/21 01:27:33;;;;;;;;;;;;;;;8.60;100.00;101552.69;5029277;28;19916;-63
2023/03/21 01:29:59;;;;;;;;;;;;;;;8.60;100.00;101550.88;5037872;28;19952;-63
2023/03/21 01:32:24;;;;;;;;;;;;;;;8.62;100.00;101545.44;5029413;28;19956;-62
2023/03/21 01:34:49;;;;;;;;;;;;;;;8.63;100.00;101547.94;5020677;28;19996;-63
2023/03/21 01:37:17;;;;;;;;;;;;;;;8.64;100.00;101535.53;5033740;28;20014;-63
2023/03/21 01:39:42;;;;;;;;;;;;;;;8.66;100.00;101539.69;5033042;28;20402;-63
2023/03/21 01:42:11;;;;;;;;;;;;;;;8.68;100.00;101531.66;5035734;28;20370;-63
2023/03/21 01:44:56;;;;;;;;;;;;;;;8.69;100.00;101526.22;5030851;28;19923;-62
2023/03/21 01:47:21;;;;;;;;;;;;;;;8.74;100.00;101532.88;5031205;28;19936;-63
2023/03/21 01:49:49;;;;;;;;;;;;;;;8.76;100.00;101523.00;5030442;28;19967;-64
2023/03/21 01:52:19;;;;;;;;;;;;;;;8.77;100.00;101528.16;5024876;28;19917;-63
2023/03/21 01:54:46;;;;;;;;;;;;;;;8.78;100.00;101513.91;5032375;28;19932;-63
2023/03/21 01:57:15;;;;;;;;;;;;;;;8.80;100.00;101511.97;5031177;28;19925;-63
2023/03/21 01:59:42;;;;;;;;;;;;;;;8.82;100.00;101522.41;5028960;28;19928;-62
2023/03/21 02:02:11;;;;;;;;;;;;;;;8.81;100.00;101524.22;5028151;28;20380;-63
2023/03/21 02:04:37;;;;;;;;;;;;;;;8.83;100.00;101513.50;5027721;28;19917;-63
2023/03/21 02:07:11;;;;;;;;;;;;;;;8.81;100.00;101505.69;5029282;28;19952;-63
2023/03/21 02:09:39;;;;;;;;;;;;;;;8.83;100.00;101505.53;5028272;28;19928;-63
2023/03/21 02:12:06;;;;;;;;;;;;;;;8.83;100.00;101508.19;5028499;28;20099;-63
2023/03/21 02:14:32;;;;;;;;;;;;;;;8.82;100.00;101504.72;5022794;28;19917;-63
2023/03/21 02:17:13;;;;;;;;;;;;;;;8.83;100.00;101494.94;5028190;28;19949;-63
2023/03/21 02:19:51;;;;;;;;;;;;;;;8.82;100.00;101491.47;5024289;28;19917;-62
2023/03/21 02:22:26;;;;;;;;;;;;;;;8.84;100.00;101491.31;5025343;28;19986;-63
2023/03/21 02:24:56;;;;;;;;;;;;;;;8.83;100.00;101487.84;5032492;28;19917;-63
2023/03/21 02:27:23;;;;;;;;;;;;;;;8.85;100.00;101488.53;5036348;28;19929;-63
2023/03/21 02:30:03;;;;;;;;;;;;;;;8.84;100.00;101484.22;5035601;28;19921;-63
2023/03/21 02:32:28;;;;;;;;;;;;;;;8.85;100.00;101487.69;5031380;28;19917;-63
2023/03/21 02:35:09;;;;;;;;;;;;;;;8.84;100.00;101484.22;5021128;28;19917;-62
2023/03/21 02:37:38;;;;;;;;;;;;;;;8.84;100.00;101472.78;5029203;28;19925;-63
2023/03/21 02:40:19;;;;;;;;;;;;;;;8.82;100.00;101475.56;5024290;28;19921;-62
2023/03/21 02:43:06;;;;;;;;;;;;;;;8.82;100.00;101472.94;5021625;28;20386;-62
2023/03/21 02:45:39;;;;;;;;;;;;;;;8.82;100.00;101472.09;5035994;28;19916;-63
2023/03/21 02:48:06;;;;;;;;;;;;;;;8.80;99.80;101466.94;5029729;28;19920;-64
2023/03/21 02:50:33;;;;;;;;;;;;;;;8.79;100.00;101469.75;5023551;28;19919;-62
2023/03/21 02:53:01;;;;;;;;;;;;;;;8.78;99.70;101463.59;5026882;28;20589;-63
2023/03/21 02:55:28;;;;;;;;;;;;;;;8.78;99.96;101468.91;5025478;28;19921;-63
2023/03/21 02:57:55;;;;;;;;;;;;;;;8.77;99.57;101463.75;5023592;28;20318;-63
2023/03/21 03:00:23;;;;;;;;;;;;;;;8.77;99.67;101466.41;5019460;28;19917;-63
2023/03/21 03:02:49;;;;;;;;;;;;;;;8.78;99.50;101463.59;5027761;28;19917;-63
2023/03/21 03:05:24;;;;;;;;;;;;;;;8.78;99.99;101460.13;5030381;28;19963;-63
2023/03/21 03:08:07;;;;;;;;;;;;;;;8.69;99.64;101448.59;5030773;28;20443;-62
2023/03/21 03:10:32;;;;;;;;;;;;;;;8.75;99.71;101448.00;5033252;28;19921;-63
2023/03/21 03:13:10;;;;;;;;;;;;;;;8.75;99.45;101450.66;5030938;28;19924;-62
2023/03/21 03:15:44;;;;;;;;;;;;;;;8.75;99.50;101452.47;5029322;28;19917;-63
2023/03/21 03:18:21;;;;;;;;;;;;;;;8.75;99.38;101449.81;5028488;28;20298;-62
2023/03/21 03:20:49;;;;;;;;;;;;;;;8.73;99.43;101449.97;5027732;28;19979;-63
2023/03/21 03:23:27;;;;;;;;;;;;;;;8.73;99.46;101449.97;5018288;28;19917;-63
2023/03/21 03:25:56;;;;;;;;;;;;;;;8.72;99.69;101443.00;5034507;28;19962;-63
2023/03/21 03:28:27;;;;;;;;;;;;;;;8.73;99.29;101443.84;5026155;28;19932;-63
2023/03/21 03:30:53;;;;;;;;;;;;;;;8.72;99.63;101436.88;5027846;28;19913;-63
2023/03/21 03:33:22;;;;;;;;;;;;;;;8.70;99.28;101434.38;5037880;28;19917;-62
2023/03/21 03:35:48;;;;;;;;;;;;;;;8.69;99.49;101433.53;5030694;28;19917;-63
2023/03/21 03:38:15;;;;;;;;;;;;;;;8.69;99.21;101427.41;5028159;28;19917;-63
2023/03/21 03:40:44;;;;;;;;;;;;;;;8.70;99.34;101434.38;5025351;28;20513;-61
2023/03/21 03:43:14;;;;;;;;;;;;;;;8.72;99.20;101428.94;5024957;28;19929;-63
2023/03/21 03:45:42;;;;;;;;;;;;;;;8.72;99.29;101432.41;5025836;28;19920;-63
2023/03/21 03:48:10;;;;;;;;;;;;;;;8.72;99.51;101427.13;5031713;28;20397;-63
2023/03/21 03:50:49;;;;;;;;;;;;;;;8.73;99.16;101422.66;5027884;28;19924;-63
2023/03/21 03:53:26;;;;;;;;;;;;;;;8.73;99.06;101417.34;5027512;28;19921;-62
2023/03/21 03:55:53;;;;;;;;;;;;;;;8.74;99.01;101422.50;5020858;28;19920;-61
2023/03/21 03:58:19;;;;;;;;;;;;;;;8.75;99.25;101424.19;5028599;28;19972;-63
2023/03/21 04:00:45;;;;;;;;;;;;;;;8.74;99.05;101419.84;5020985;28;19921;-61
2023/03/21 04:03:10;;;;;;;;;;;;;;;8.75;98.98;101423.34;5033189;28;20001;-63
2023/03/21 04:05:35;;;;;;;;;;;;;;;8.75;99.06;101418.03;5027480;28;19917;-63
2023/03/21 04:08:01;;;;;;;;;;;;;;;8.76;99.35;101417.91;5031112;28;19917;-62
2023/03/21 04:10:26;;;;;;;;;;;;;;;8.76;99.02;101425.84;5023360;28;19960;-62
2023/03/21 04:12:51;;;;;;;;;;;;;;;8.74;99.44;101414.56;5033935;28;19921;-63
2023/03/21 04:15:18;;;;;;;;;;;;;;;8.75;98.86;101404.81;5028210;28;20007;-63
2023/03/21 04:17:44;;;;;;;;;;;;;;;8.76;98.94;101407.31;5029349;28;19917;-63
2023/03/21 04:20:09;;;;;;;;;;;;;;;8.76;99.26;101398.53;5027880;28;19966;-62
2023/03/21 04:22:34;;;;;;;;;;;;;;;8.76;99.01;101404.66;5020586;28;19913;-63
2023/03/21 04:25:00;;;;;;;;;;;;;;;8.78;99.11;101402.69;5021088;28;19932;-62
2023/03/21 04:27:25;;;;;;;;;;;;;;;8.77;98.73;101403.69;5024264;28;20000;-62
2023/03/21 04:29:50;;;;;;;;;;;;;;;8.76;98.79;101396.72;5031701;28;19951;-63
2023/03/21 04:32:16;;;;;;;;;;;;;;;8.78;98.99;101397.41;5026663;28;20390;-62
2023/03/21 04:34:48;;;;;;;;;;;;;;;8.79;98.91;101391.13;5028952;28;19979;-62
2023/03/21 04:37:18;;;;;;;;;;;;;;;8.81;98.89;101397.09;5028404;28;20309;-62
2023/03/21 04:39:45;;;;;;;;;;;;;;;8.81;99.04;101399.75;5026173;28;19925;-63
2023/03/21 04:42:10;;;;;;;;;;;;;;;8.82;98.95;101388.19;5028027;28;20298;-62
2023/03/21 04:44:35;;;;;;;;;;;;;;;8.82;98.47;101385.53;5020073;28;19924;-63
2023/03/21 04:47:00;;;;;;;;;;;;;;;8.84;98.69;101388.88;5029512;28;19941;-63
2023/03/21 04:49:26;;;;;;;;;;;;;;;8.84;98.51;101385.38;5031739;28;19925;-63
2023/03/21 04:51:51;;;;;;;;;;;;;;;8.84;98.50;101380.94;5033683;28;19920;-63
2023/03/21 04:54:16;;;;;;;;;;;;;;;8.83;98.30;101381.91;5032575;28;20397;-62
2023/03/21 04:56:41;;;;;;;;;;;;;;;8.83;97.92;101384.56;5028312;28;19917;-63
2023/03/21 04:59:11;;;;;;;;;;;;;;;8.84;97.45;101374.78;5031981;28;20067;-62
2023/03/21 05:01:36;;;;;;;;;;;;;;;8.85;97.15;101373.81;5021459;28;20009;-62
2023/03/21 05:04:02;;;;;;;;;;;;;;;8.84;97.31;101367.69;5028542;28;20005;-62
2023/03/21 05:06:28;;;;;;;;;;;;;;;8.85;97.24;101374.66;5024147;28;20362;-63
2023/03/21 05:08:55;;;;;;;;;;;;;;;8.85;97.12;101360.56;5030823;28;19925;-62
2023/03/21 05:11:20;;;;;;;;;;;;;;;8.87;97.10;101371.84;5015434;28;20323;-63
2023/03/21 05:13:46;;;;;;;;;;;;;;;8.87;96.96;101369.19;5007849;28;19922;-63
2023/03/21 05:16:11;;;;;;;;;;;;;;;8.88;96.75;101369.06;5030233;28;19971;-63
2023/03/21 05:18:37;;;;;;;;;;;;;;;8.90;96.30;101360.97;5026545;28;19917;-62
2023/03/21 05:21:03;;;;;;;;;;;;;;;8.92;96.08;101369.59;5024567;28;19919;-63
2023/03/21 05:23:30;;;;;;;;;;;;;;;8.93;96.22;101364.16;5036547;28;19932;-63
2023/03/21 05:25:55;;;;;;;;;;;;;;;8.93;95.88;101366.78;5031342;28;20020;-63
2023/03/21 05:28:20;;;;;;;;;;;;;;;8.93;95.80;101374.75;5040743;28;20019;-62
2023/03/21 05:30:46;;;;;;;;;;;;;;;8.93;95.51;101366.78;5036418;28;20378;-62
2023/03/21 05:33:11;;;;;;;;;;;;;;;8.96;95.47;101370.97;5035783;28;20003;-62
2023/03/21 05:35:37;;;;;;;;;;;;;;;8.97;95.52;101362.06;5032252;28;19913;-62
2023/03/21 05:38:02;;;;;;;;;;;;;;;8.97;95.30;101367.38;5033938;28;19944;-63
2023/03/21 05:40:27;;;;;;;;;;;;;;;8.99;95.39;101363.59;5029533;28;19917;-63
2023/03/21 05:42:52;;;;;;;;;;;;;;;9.01;95.10;101366.09;5041987;28;20027;-62
2023/03/21 05:45:17;;;;;;;;;;;;;;;9.00;95.40;101365.25;5023718;28;19920;-63
2023/03/21 05:47:42;;;;;;;;;;;;;;;9.03;95.07;101363.28;5040134;28;19924;-62
2023/03/21 05:50:08;;;;;;;;;;;;;;;9.04;94.59;101364.94;5040780;28;19949;-62
2023/03/21 05:52:33;;;;;;;;;;;;;;;9.04;94.83;101357.84;5029751;28;19925;-63
2023/03/21 05:54:58;;;;;;;;;;;;;;;9.07;94.22;101362.00;5023946;28;19917;-63
2023/03/21 05:57:25;;;;;;;;;;;;;;;9.11;94.26;101360.72;5040238;28;19921;-63
2023/03/21 05:59:50;;;;;;;;;;;;;;;9.12;94.18;101355.28;5036439;28;19913;-63
2023/03/21 06:02:15;;;;;;;;;;;;;;;9.14;93.59;101355.13;5032236;28;19932;-62
2023/03/21 06:04:41;;;;;;;;;;;;;;;9.14;93.50;101358.59;5025086;28;19917;-63
2023/03/21 06:07:06;;;;;;;;;;;;;;;9.15;93.08;101362.91;5030967;28;20479;-63
2023/03/21 06:09:32;;;;;;;;;;;;;;;9.16;93.32;101363.75;5023920;28;19921;-63
2023/03/21 06:11:57;;;;;;;;;;;;;;;9.18;93.32;101356.50;5027870;28;19917;-63
2023/03/21 06:14:23;;;;;;;;;;;;;;;9.17;92.89;101360.94;5031858;28;19972;-63
2023/03/21 06:16:49;;;;;;;;;;;;;;;9.18;92.67;101354.66;5031760;28;19967;-63
2023/03/21 06:19:15;;;;;;;;;;;;;;;9.22;92.76;101361.34;5035503;28;19921;-63
2023/03/21 06:21:40;;;;;;;;;;;;;;;9.21;92.37;101357.03;5036367;28;20390;-63
2023/03/21 06:24:05;;;;;;;;;;;;;;;9.26;92.46;101361.91;5034123;28;19921;-63
2023/03/21 06:26:31;;;;;;;;;;;;;;;9.27;92.18;101368.88;5038189;28;19994;-63
2023/03/21 06:28:56;;;;;;;;;;;;;;;9.31;91.92;101370.22;5031176;28;19925;-63
2023/03/21 06:31:21;;;;;;;;;;;;;;;9.35;91.70;101376.06;5017573;28;19983;-62
2023/03/21 06:33:47;;;;;;;;;;;;;;;9.37;91.58;101368.78;5020804;28;19917;-63
2023/03/21 06:36:12;;;;;;;;;;;;;;;9.38;91.66;101378.41;5025985;28;19914;-63
2023/03/21 06:38:38;;;;;;;;;;;;;;;9.39;91.71;101374.78;5027707;28;20027;-63
2023/03/21 06:41:03;;;;;;;;;;;;;;;9.36;91.60;101373.25;5022401;28;19930;-63
2023/03/21 06:43:30;;;;;;;;;;;;;;;9.36;91.74;101373.25;5033214;28;20059;-63
2023/03/21 06:45:55;;;;;;;;;;;;;;;9.34;92.21;101375.22;5044973;28;19977;-64
2023/03/21 06:48:20;;;;;;;;;;;;;;;9.31;92.41;101376.38;5032282;28;19925;-63
2023/03/21 06:50:47;;;;;;;;;;;;;;;9.28;92.92;101368.72;5031712;28;20063;-64
2023/03/21 06:53:12;;;;;;;;;;;;;;;9.25;93.02;101369.00;5035746;28;19920;-64
2023/03/21 06:55:37;;;;;;;;;;;;;;;9.23;93.65;101368.31;5027959;28;19917;-64
2023/03/21 06:58:02;;;;;;;;;;;;;;;9.22;93.46;101373.75;5022902;28;19979;-64
2023/03/21 07:00:28;;;;;;;;;;;;;;;9.20;94.15;101378.38;5030672;28;19917;-64
2023/03/21 07:02:53;;;;;;;;;;;;;;;9.17;94.28;101376.84;5036543;28;19920;-64
2023/03/21 07:05:18;;;;;;;;;;;;;;;9.18;94.48;101377.69;5028598;28;20401;-63
2023/03/21 07:07:43;;;;;;;;;;;;;;;9.17;94.85;101376.00;5021133;28;19926;-64
2023/03/21 07:10:09;;;;;;;;;;;;;;;9.17;95.36;101387.44;5026025;28;19921;-63
2023/03/21 07:12:34;;;;;;;;;;;;;;;9.15;95.42;101381.47;5011313;28;19960;-63
2023/03/21 07:15:00;;;;;;;;;;;;;;;9.16;95.88;101395.56;5026653;28;19913;-63
2023/03/21 07:17:25;;;;;;;;;;;;;;;9.16;95.84;101395.56;5019672;28;19976;-63
2023/03/21 07:19:51;;;;;;;;;;;;;;;9.13;96.33;101394.03;5021400;28;19932;-64
2023/03/21 07:22:16;;;;;;;;;;;;;;;9.10;96.52;101391.69;5017648;28;20428;-64
2023/03/21 07:24:41;;;;;;;;;;;;;;;9.11;97.32;101408.41;5021551;28;19914;-64
2023/03/21 07:27:07;;;;;;;;;;;;;;;9.05;97.28;101396.59;5019771;28;19913;-63
2023/03/21 07:29:32;;;;;;;;;;;;;;;9.03;97.80;101395.06;5022198;28;19921;-64
2023/03/21 07:31:57;;;;;;;;;;;;;;;9.04;97.80;101394.09;5020781;28;19922;-64
2023/03/21 07:34:22;;;;;;;;;;;;;;;9.05;98.30;101395.75;5022233;28;19975;-63
2023/03/21 07:36:48;;;;;;;;;;;;;;;9.05;98.53;101395.75;5024169;28;19923;-64
2023/03/21 07:39:13;;;;;;;;;;;;;;;9.05;98.52;101399.25;5016969;28;20007;-64
2023/03/21 07:41:38;;;;;;;;;;;;;;;9.06;98.58;101392.13;5018824;28;19963;-64
2023/03/21 07:44:03;;;;;;;;;;;;;;;9.05;99.16;101386.00;5023247;28;19924;-64
2023/03/21 07:46:28;;;;;;;;;;;;;;;9.06;99.04;101381.53;5016675;28;20290;-63
2023/03/21 07:48:53;;;;;;;;;;;;;;;9.06;99.13;101379.72;5023394;28;19925;-63
2023/03/21 07:51:19;;;;;;;;;;;;;;;9.06;99.63;101363.81;5023817;28;19972;-64
2023/03/21 07:53:47;;;;;;;;;;;;;;;9.08;99.82;101364.50;5021915;28;19971;-64
2023/03/21 07:56:12;;;;;;;;;;;;;;;9.09;99.62;101375.94;5021939;28;19917;-63
2023/03/21 07:58:37;;;;;;;;;;;;;;;9.10;99.73;101373.13;5021906;28;19921;-64
2023/03/21 08:01:02;;;;;;;;;;;;;;;9.11;99.78;101366.03;5020851;28;20428;-64
2023/03/21 08:03:28;;;;;;;;;;;;;;;9.13;99.82;101367.53;5022623;28;19917;-64
2023/03/21 08:05:54;;;;;;;;;;;;;;;9.13;99.85;101361.41;5018908;28;19980;-64
2023/03/21 08:08:19;;;;;;;;;;;;;;;9.13;100.00;101364.88;5023170;28;21804;-64
2023/03/21 08:10:44;;;;;;;;;;;;;;;9.13;100.00;101356.94;5018107;28;19921;-64
2023/03/21 08:13:10;;;;;;;;;;;;;;;9.14;100.00;101357.78;5014875;28;20298;-64
2023/03/21 08:15:36;;;;;;;;;;;;;;;9.13;100.00;101345.50;5027124;28;20508;-65
2023/03/21 08:18:01;;;;;;;;;;;;;;;9.16;100.00;101350.50;5022708;28;19917;-64
2023/03/21 08:20:26;;;;;;;;;;;;;;;9.17;100.00;101350.34;5024438;28;19924;-64
2023/03/21 08:22:52;;;;;;;;;;;;;;;9.20;100.00;101343.91;5022758;28;20294;-65
2023/03/21 08:25:18;;;;;;;;;;;;;;;9.22;100.00;101340.13;5023949;28;19913;-64
2023/03/21 08:27:45;;;;;;;;;;;;;;;9.24;100.00;101332.88;5020897;28;19969;-64
2023/03/21 08:30:11;;;;;;;;;;;;;;;9.26;100.00;101330.09;5028504;28;19928;-65
2023/03/21 08:32:37;;;;;;;;;;;;;;;9.31;100.00;101330.47;5024837;28;20059;-65
2023/03/21 08:35:08;;;;;;;;;;;;;;;9.35;100.00;101341.59;5021918;28;20004;-64
2023/03/21 08:37:34;;;;;;;;;;;;;;;9.35;100.00;101328.34;5022452;28;19913;-64
2023/03/21 08:39:59;;;;;;;;;;;;;;;9.38;100.00;101334.19;5017708;28;19924;-64
2023/03/21 08:42:25;;;;;;;;;;;;;;;9.40;100.00;101334.03;5024390;28;19936;-64
2023/03/21 08:44:50;;;;;;;;;;;;;;;9.39;100.00;101329.72;5024806;28;20338;-65
2023/03/21 08:47:15;;;;;;;;;;;;;;;9.39;100.00;101335.84;5022620;28;19975;-65
2023/03/21 08:49:41;;;;;;;;;;;;;;;9.39;100.00;101330.53;5025783;28;19929;-65
2023/03/21 08:52:06;;;;;;;;;;;;;;;9.43;100.00;101334.56;5019791;28;20541;-64
2023/03/21 08:54:31;;;;;;;;;;;;;;;9.47;100.00;101324.47;5025547;28;20375;-65
2023/03/21 08:56:57;;;;;;;;;;;;;;;9.52;99.86;101316.91;5028519;28;19921;-64
2023/03/21 08:59:22;;;;;;;;;;;;;;;9.55;100.00;101319.28;5027453;28;19917;-64
2023/03/21 09:01:47;;;;;;;;;;;;;;;9.57;99.74;101312.84;5029635;28;19928;-65
2023/03/21 09:04:12;;;;;;;;;;;;;;;9.58;99.73;101309.19;5026125;28;19917;-65
2023/03/21 09:06:39;;;;;;;;;;;;;;;9.61;99.51;101314.19;5031207;28;19920;-65
2023/03/21 09:09:06;;;;;;;;;;;;;;;9.65;99.00;101305.94;5022104;28;20474;-64
2023/03/21 09:11:32;;;;;;;;;;;;;;;9.66;98.61;101310.25;5026495;28;19967;-65
2023/03/21 09:13:57;;;;;;;;;;;;;;;9.67;98.81;101306.59;5026869;28;19968;-64
2023/03/21 09:16:23;;;;;;;;;;;;;;;9.70;98.61;101311.59;5022622;28;19966;-64
2023/03/21 09:18:54;;;;;;;;;;;;;;;9.73;98.22;101311.28;5025260;28;19921;-64
2023/03/21 09:21:21;;;;;;;;;;;;;;;9.76;98.23;101311.81;5027164;28;20618;-64
2023/03/21 09:23:49;;;;;;;;;;;;;;;9.80;97.91;101307.03;5022631;28;19917;-64
2023/03/21 09:26:15;;;;;;;;;;;;;;;9.85;98.39;101302.13;5020768;28;20562;-64
2023/03/21 09:28:41;;;;;;;;;;;;;;;9.89;97.95;101304.31;5025564;28;19968;-64
2023/03/21 09:31:10;;;;;;;;;;;;;;;9.90;97.75;101297.19;5023566;28;19964;-64
2023/03/21 09:33:35;;;;;;;;;;;;;;;9.94;97.50;101294.06;5022810;28;19925;-64
2023/03/21 09:36:00;;;;;;;;;;;;;;;9.99;97.18;101295.41;5023613;28;19944;-65
2023/03/21 09:38:29;;;;;;;;;;;;;;;9.98;96.67;101297.22;5027524;28;19999;-64
2023/03/21 09:41:13;;;;;;;;;;;;;;;10.01;96.54;101290.78;5030540;28;19924;-64
2023/03/21 09:43:53;;;;;;;;;;;;;;;10.00;96.50;101297.91;5031929;28;19924;-65
2023/03/21 09:46:42;;;;;;;;;;;;;;;10.01;96.45;101288.13;5023005;28;19917;-64
2023/03/21 09:49:11;;;;;;;;;;;;;;;10.04;96.15;101285.97;4997421;28;20384;-65
2023/03/21 09:51:44;;;;;;;;;;;;;;;10.07;96.01;101271.56;5026341;28;19927;-65
2023/03/21 09:54:36;;;;;;;;;;;;;;;10.12;96.23;101271.94;5024846;28;19963;-64
2023/03/21 09:57:06;;;;;;;;;;;;;;;10.15;95.66;101275.13;5019608;28;19921;-64
2023/03/21 09:59:40;;;;;;;;;;;;;;;10.19;95.82;101271.16;5022853;28;19925;-64
2023/03/21 10:02:31;;;;;;;;;;;;;;;10.22;95.51;101276.19;5020276;28;19995;-64
2023/03/21 10:04:57;;;;;;;;;;;;;;;10.24;94.76;101271.56;5017466;28;19925;-64
2023/03/21 10:07:23;;;;;;;;;;;;;;;10.27;94.67;101267.75;5028622;28;19924;-64
2023/03/21 10:09:50;;;;;;;;;;;;;;;10.30;94.58;101264.78;5029300;28;19921;-64
2023/03/21 10:12:19;;;;;;;;;;;;;;;10.37;94.56;101257.81;5029598;28;19917;-63
2023/03/21 10:14:46;;;;;;;;;;;;;;;10.43;94.28;101261.69;5027859;28;19913;-64
2023/03/21 10:17:23;;;;;;;;;;;;;;;10.48;94.36;101264.69;5024433;28;19917;-63
2023/03/21 10:19:54;;;;;;;;;;;;;;;10.47;93.81;101269.19;5021266;28;19917;-64
2023/03/21 10:22:19;;;;;;;;;;;;;;;10.49;93.01;101253.09;5022730;28;19927;-64
2023/03/21 10:24:45;;;;;;;;;;;;;;;10.51;93.32;101259.91;5030062;28;19920;-64
2023/03/21 10:27:12;;;;;;;;;;;;;;;10.55;92.88;101250.63;5021129;28;19925;-64
2023/03/21 10:29:42;;;;;;;;;;;;;;;10.60;92.39;101255.44;5035099;28;19921;-64
2023/03/21 10:32:08;;;;;;;;;;;;;;;10.65;92.39;101250.47;5027117;28;19947;-64
2023/03/21 10:34:36;;;;;;;;;;;;;;;10.73;92.24;101252.34;5023204;28;19967;-64
2023/03/21 10:37:03;;;;;;;;;;;;;;;10.76;91.58;101252.84;5024114;28;19972;-64
2023/03/21 10:39:36;;;;;;;;;;;;;;;10.77;91.21;101243.88;5019977;28;19917;-64
2023/03/21 10:42:02;;;;;;;;;;;;;;;10.85;91.80;101249.22;5023648;28;19959;-64
2023/03/21 10:44:28;;;;;;;;;;;;;;;10.95;92.08;101261.53;5027882;28;19967;-64
2023/03/21 10:46:55;;;;;;;;;;;;;;;10.99;91.71;101260.22;5016253;28;19913;-64
2023/03/21 10:49:20;;;;;;;;;;;;;;;11.04;91.42;101249.94;5013839;28;20417;-64
2023/03/21 10:51:48;;;;;;;;;;;;;;;11.03;90.56;101249.09;5025399;28;19955;-64
2023/03/21 10:54:15;;;;;;;;;;;;;;;11.04;90.36;101250.75;5026237;28;19917;-64
2023/03/21 10:56:47;;;;;;;;;;;;;;;11.06;89.72;101250.59;5024267;28;20322;-63
2023/03/21 10:59:17;;;;;;;;;;;;;;;11.08;89.79;101253.91;5023728;28;20032;-64
2023/03/21 11:01:45;;;;;;;;;;;;;;;11.14;89.65;101251.44;5016543;28;19963;-64
2023/03/21 11:04:15;;;;;;;;;;;;;;;11.18;89.46;101250.09;5021735;28;20303;-64
2023/03/21 11:06:42;;;;;;;;;;;;;;;11.21;88.13;101248.13;5025186;28;20002;-63
2023/03/21 11:09:12;;;;;;;;;;;;;;;11.25;88.55;101244.94;5027713;28;20361;-64
2023/03/21 11:11:47;;;;;;;;;;;;;;;11.29;88.42;101243.66;5028848;28;19960;-64
2023/03/21 11:14:24;;;;;;;;;;;;;;;11.36;88.47;101236.66;5025093;28;20402;-64
2023/03/21 11:16:50;;;;;;;;;;;;;;;11.39;87.34;101232.84;5028405;28;19940;-64
2023/03/21 11:19:16;;;;;;;;;;;;;;;11.41;87.24;101244.97;5015370;28;20310;-64
2023/03/21 11:21:42;;;;;;;;;;;;;;;11.44;86.28;101243.81;5023815;28;19921;-64
2023/03/21 11:24:15;;;;;;;;;;;;;;;11.47;86.66;101230.19;5028027;28;19988;-64
2023/03/21 11:26:43;;;;;;;;;;;;;;;11.53;87.02;101240.16;5017123;28;19925;-64
2023/03/21 11:29:15;;;;;;;;;;;;;;;11.58;86.18;101237.00;5026982;28;19967;-65
2023/03/21 11:31:40;;;;;;;;;;;;;;;11.62;85.57;101233.00;5027621;28;19917;-64
2023/03/21 11:34:07;;;;;;;;;;;;;;;11.66;85.42;101239.66;5027456;28;19920;-64
2023/03/21 11:36:33;;;;;;;;;;;;;;;11.70;84.94;101225.84;5024798;28;19925;-63
2023/03/21 11:39:01;;;;;;;;;;;;;;;11.74;84.32;101229.00;5017642;28;19925;-65
2023/03/21 11:41:33;;;;;;;;;;;;;;;11.78;83.03;101244.47;5021960;28;19917;-63
2023/03/21 11:43:59;;;;;;;;;;;;;;;11.81;82.34;101232.66;5020635;28;19913;-63
2023/03/21 11:46:26;;;;;;;;;;;;;;;11.84;81.74;101228.84;5022133;28;19971;-64
2023/03/21 11:48:52;;;;;;;;;;;;;;;11.87;81.07;101228.53;5022573;28;20405;-64
2023/03/21 11:51:26;;;;;;;;;;;;;;;11.90;80.89;101226.34;5020226;28;19925;-64
2023/03/21 11:54:10;;;;;;;;;;;;;;;11.91;80.42;101220.03;5016245;28;19984;-64
2023/03/21 11:56:39;;;;;;;;;;;;;;;11.98;80.67;101222.84;5021850;28;20333;-64
2023/03/21 11:59:07;;;;;;;;;;;;;;;12.00;80.47;101212.84;5021567;28;19917;-64
2023/03/21 12:01:37;;;;;;;;;;;;;;;12.00;79.80;101205.69;5018064;28;19928;-64
2023/03/21 12:04:12;;;;;;;;;;;;;;;12.01;79.63;101211.84;5023206;28;19923;-63
2023/03/21 12:06:41;;;;;;;;;;;;;;;11.96;78.74;101219.50;5023190;28;19964;-64
2023/03/21 12:09:11;;;;;;;;;;;;;;;11.93;78.82;101212.69;5026801;28;19932;-63
2023/03/21 12:11:37;;;;;;;;;;;;;;;11.93;78.97;101210.03;5022481;28;19921;-64
2023/03/21 12:14:08;;;;;;;;;;;;;;;11.97;79.56;101200.72;5020026;28;20575;-62
2023/03/21 12:16:42;;;;;;;;;;;;;;;12.00;78.86;101205.69;5024735;28;20040;-64
2023/03/21 12:19:12;;;;;;;;;;;;;;;11.98;78.64;101199.69;5027516;28;19923;-64
2023/03/21 12:21:45;;;;;;;;;;;;;;;11.99;78.15;101182.72;5022027;28;20390;-64
2023/03/21 12:24:13;;;;;;;;;;;;;;;11.99;78.23;101190.72;5022878;28;19924;-64
2023/03/21 12:26:43;;;;;;;;;;;;;;;12.08;78.82;101179.03;5019172;28;19928;-64
2023/03/21 12:29:21;;;;;;;;;;;;;;;12.26;79.00;101172.66;5036190;28;19927;-64
2023/03/21 12:31:59;;;;;;;;;;;;;;;12.34;77.95;101176.09;5020335;28;19921;-64
2023/03/21 12:34:31;;;;;;;;;;;;;;;12.31;77.76;101184.44;5019772;28;19968;-64
2023/03/21 12:36:56;;;;;;;;;;;;;;;12.28;77.27;101176.78;5022838;28;20593;-64
2023/03/21 12:39:33;;;;;;;;;;;;;;;12.23;76.97;101168.50;5026237;28;19917;-64
2023/03/21 12:42:25;;;;;;;;;;;;;;;12.19;76.70;101166.38;5005121;28;20031;-64
2023/03/21 12:44:54;;;;;;;;;;;;;;;12.28;77.07;101173.31;4999971;28;20349;-64
2023/03/21 12:47:22;;;;;;;;;;;;;;;12.37;76.72;101166.94;5025978;28;20691;-64